Time;durP1;ratioP1;P1;durP2;ratioP2;P2;SDS_P1;SDS_P2;PMS_P1;PMS_P2;Temp;Humidity;BMP_temperature;BMP_pressure;BME280_temperature;BME280_humidity;BME280_pressure;Samples;Min_cycle;Max_cycle;Signal;HPM_P1;HPM_P2
2021/12/09 00:02:13;;;;;;;49.95;27.20;;;;;;;0.13;99.52;100569.91;4882283;29;20205;-81
2021/12/09 00:04:39;;;;;;;49.00;27.38;;;;;;;0.12;99.49;100573.41;4882023;29;20176;-80
2021/12/09 00:07:05;;;;;;;48.45;27.52;;;;;;;0.14;99.59;100573.41;4882240;29;20639;-81
2021/12/09 00:09:31;;;;;;;48.50;28.10;;;;;;;0.15;99.40;100585.69;4882875;29;20170;-81
2021/12/09 00:11:58;;;;;;;52.35;28.10;;;;;;;0.18;99.30;100578.66;4882229;29;20576;-81
2021/12/09 00:14:26;;;;;;;48.50;28.17;;;;;;;0.19;99.16;100583.06;4865393;29;20529;-81
2021/12/09 00:16:58;;;;;;;52.45;29.30;;;;;;;0.16;99.07;100580.44;4881252;29;20347;-80
2021/12/09 00:19:24;;;;;;;46.80;27.33;;;;;;;0.15;98.87;100572.50;4865394;29;20216;-80
2021/12/09 00:21:50;;;;;;;47.80;27.63;;;;;;;0.18;99.33;100583.94;4864997;29;20224;-81
2021/12/09 00:24:15;;;;;;;51.95;29.42;;;;;;;0.20;99.01;100586.59;4880455;29;20190;-81
2021/12/09 00:26:44;;;;;;;49.85;28.58;;;;;;;0.28;98.84;100584.81;4864038;29;20472;-80
2021/12/09 00:29:10;;;;;;;47.35;27.80;;;;;;;0.24;98.50;100588.34;4881743;29;20169;-80
2021/12/09 00:31:36;;;;;;;53.00;28.10;;;;;;;0.23;98.44;100586.56;4848505;29;20265;-81
2021/12/09 00:34:03;;;;;;;53.08;28.92;;;;;;;0.22;98.83;100595.38;4880216;29;20567;-80
2021/12/09 00:36:38;;;;;;;50.10;28.40;;;;;;;0.18;99.06;100588.34;4864041;29;20226;-80
2021/12/09 00:39:06;;;;;;;48.00;28.10;;;;;;;0.21;98.55;100590.97;4862482;29;20532;-80
2021/12/09 00:41:32;;;;;;;51.75;30.60;;;;;;;0.19;98.80;100590.09;4861978;29;20253;-80
2021/12/09 00:43:57;;;;;;;54.30;28.13;;;;;;;0.22;98.64;100582.19;4863983;29;20186;-80
2021/12/09 00:46:23;;;;;;;57.08;29.42;;;;;;;0.21;98.75;100590.97;4847369;29;20288;-80
2021/12/09 00:48:48;;;;;;;52.25;29.77;;;;;;;0.19;98.82;100584.81;4847433;29;20268;-81
2021/12/09 00:51:14;;;;;;;57.47;30.05;;;;;;;0.19;98.56;100588.31;4864328;29;20198;-81
2021/12/09 00:53:40;;;;;;;50.50;27.85;;;;;;;0.24;98.89;100585.72;4848319;29;20182;-81
2021/12/09 00:56:07;;;;;;;56.33;30.10;;;;;;;0.27;98.51;100582.19;4847972;29;20189;-81
2021/12/09 00:58:33;;;;;;;55.75;29.80;;;;;;;0.19;98.71;100584.81;4862505;29;20186;-83
2021/12/09 01:00:58;;;;;;;57.85;30.00;;;;;;;0.20;98.35;100584.81;4865291;29;20198;-82
2021/12/09 01:03:23;;;;;;;55.67;30.98;;;;;;;0.21;98.23;100572.53;4865459;29;20528;-82
2021/12/09 01:05:49;;;;;;;51.15;28.35;;;;;;;0.22;98.82;100576.03;4849230;29;20306;-82
2021/12/09 01:08:15;;;;;;;55.78;30.08;;;;;;;0.17;98.92;100574.25;4847215;29;20174;-81
2021/12/09 01:10:41;;;;;;;56.55;29.50;;;;;;;0.24;98.87;100584.81;4849197;29;20217;-80
2021/12/09 01:13:07;;;;;;;59.65;30.83;;;;;;;0.19;99.28;100580.41;4867213;29;20242;-80
2021/12/09 01:15:32;;;;;;;56.25;28.95;;;;;;;0.20;98.96;100582.19;4917582;24;20294;-82
2021/12/09 01:17:58;;;;;;;55.22;30.38;;;;;;;0.23;99.20;100583.94;4857248;29;20186;-81
2021/12/09 01:20:25;;;;;;;54.80;29.92;;;;;;;0.23;99.19;100581.31;4859566;29;20357;-82
2021/12/09 01:22:56;;;;;;;52.15;29.50;;;;;;;0.26;99.21;100576.03;4862846;29;20627;-81
2021/12/09 01:25:24;;;;;;;57.90;31.52;;;;;;;0.22;99.07;100576.94;4846120;29;20181;-81
2021/12/09 01:27:53;;;;;;;56.15;30.17;;;;;;;0.21;99.16;100580.44;4829596;29;20276;-81
2021/12/09 01:30:25;;;;;;;56.88;29.80;;;;;;;0.20;99.16;100573.41;4862742;29;20213;-81
2021/12/09 01:32:53;;;;;;;56.58;30.98;;;;;;;0.20;98.60;100571.66;4862490;29;20172;-81
2021/12/09 01:35:21;;;;;;;56.47;30.38;;;;;;;0.18;98.72;100569.91;4837818;29;20195;-81
2021/12/09 01:37:47;;;;;;;63.33;30.63;;;;;;;0.20;99.40;100576.03;4843383;29;20171;-81
2021/12/09 01:40:15;;;;;;;57.42;30.52;;;;;;;0.17;99.16;100576.03;4826934;29;20224;-81
2021/12/09 01:42:42;;;;;;;53.08;31.25;;;;;;;0.16;98.82;100571.66;4827120;29;20277;-81
2021/12/09 01:45:08;;;;;;;62.75;32.50;;;;;;;0.16;99.18;100574.28;4827305;29;20213;-81
2021/12/09 01:47:33;;;;;;;58.35;30.42;;;;;;;0.19;99.25;100580.41;4826052;29;20275;-81
2021/12/09 01:49:59;;;;;;;59.15;31.27;;;;;;;0.19;99.53;100571.63;4827179;29;20589;-81
2021/12/09 01:52:24;;;;;;;62.22;32.13;;;;;;;0.12;99.07;100577.78;4826782;29;20186;-81
2021/12/09 01:54:50;;;;;;;55.40;31.42;;;;;;;0.19;98.93;100571.63;4826797;29;20179;-81
2021/12/09 01:57:16;;;;;;;57.97;31.70;;;;;;;0.19;99.43;100569.88;4841323;29;20826;-81
2021/12/09 01:59:41;;;;;;;58.08;32.10;;;;;;;0.20;99.40;100554.97;4826680;29;20170;-81
2021/12/09 02:02:07;;;;;;;59.28;31.48;;;;;;;0.19;98.82;100558.47;4843388;29;20520;-82
2021/12/09 02:04:32;;;;;;;61.80;32.53;;;;;;;0.18;98.78;100552.31;4826826;29;20191;-81
2021/12/09 02:06:58;;;;;;;62.35;32.85;;;;;;;0.19;98.95;100569.00;4922420;23;20600;-81
2021/12/09 02:09:23;;;;;;;61.03;32.58;;;;;;;0.20;98.78;100565.50;4865546;29;20198;-81
2021/12/09 02:11:48;;;;;;;61.70;32.15;;;;;;;0.17;99.33;100574.25;4869877;29;20212;-80
2021/12/09 02:14:14;;;;;;;64.10;33.40;;;;;;;0.13;98.73;100574.28;4873704;29;20192;-79
2021/12/09 02:16:40;;;;;;;58.20;30.80;;;;;;;0.15;98.93;100575.16;4864703;29;20631;-79
2021/12/09 02:19:05;;;;;;;63.83;33.83;;;;;;;0.14;99.06;100576.03;4881123;29;20182;-82
2021/12/09 02:21:34;;;;;;;64.65;33.80;;;;;;;0.15;99.17;100578.69;4879179;29;20218;-82
2021/12/09 02:24:08;;;;;;;60.38;32.33;;;;;;;0.22;98.85;100586.56;4861341;29;20176;-82
2021/12/09 02:26:37;;;;;;;67.10;32.95;;;;;;;0.23;98.94;100583.94;4861386;29;20197;-81
2021/12/09 02:29:05;;;;;;;62.92;32.78;;;;;;;0.19;98.87;100584.81;4862067;29;20174;-81
2021/12/09 02:31:31;;;;;;;59.83;33.17;;;;;;;0.17;98.85;100590.06;4879334;29;20200;-81
2021/12/09 02:33:57;;;;;;;68.43;32.83;;;;;;;0.17;98.99;100587.44;4863240;29;20212;-81
2021/12/09 02:36:24;;;;;;;59.08;31.13;;;;;;;0.17;98.94;100586.56;4859617;29;20298;-81
2021/12/09 02:38:50;;;;;;;68.10;32.92;;;;;;;0.16;98.79;100585.69;4842948;29;20190;-81
2021/12/09 02:41:23;;;;;;;64.25;34.08;;;;;;;0.21;99.19;100580.44;4826627;29;20187;-81
2021/12/09 02:43:52;;;;;;;58.33;33.03;;;;;;;0.14;98.88;100586.56;4844321;29;20261;-80
2021/12/09 02:46:18;;;;;;;58.95;31.42;;;;;;;0.13;98.66;100585.72;4845332;29;20211;-79
2021/12/09 02:48:44;;;;;;;62.60;31.88;;;;;;;0.14;98.86;100573.41;4859264;29;20182;-82
2021/12/09 02:51:10;;;;;;;64.25;33.90;;;;;;;0.09;98.77;100567.25;4857038;29;20266;-80
2021/12/09 02:53:36;;;;;;;67.30;34.63;;;;;;;0.10;99.01;100567.25;4843527;29;20227;-81
2021/12/09 02:56:02;;;;;;;60.17;34.15;;;;;;;0.13;98.83;100564.63;4855800;29;20198;-81
2021/12/09 02:58:28;;;;;;;61.90;33.80;;;;;;;0.10;98.85;100566.38;4826264;29;20284;-81
2021/12/09 03:01:00;;;;;;;67.32;34.38;;;;;;;0.13;99.24;100559.38;4827125;29;20230;-81
2021/12/09 03:03:27;;;;;;;69.35;33.97;;;;;;;0.08;98.72;100568.13;4845673;29;20285;-80
2021/12/09 03:05:57;;;;;;;63.88;32.70;;;;;;;0.10;98.73;100576.91;4859742;29;20210;-80
2021/12/09 03:08:34;;;;;;;66.53;34.47;;;;;;;0.06;98.78;100572.53;4829148;29;20178;-80
2021/12/09 03:11:11;;;;;;;63.13;34.92;;;;;;;0.10;99.13;100580.41;4828832;29;20609;-80
2021/12/09 03:13:38;;;;;;;59.63;32.40;;;;;;;0.10;98.93;100574.28;4845326;29;20175;-80
2021/12/09 03:16:04;;;;;;;62.45;32.92;;;;;;;0.09;98.79;100583.94;4845515;29;20272;-80
2021/12/09 03:18:36;;;;;;;63.22;35.30;;;;;;;0.03;99.04;100583.06;4827884;29;20277;-80
2021/12/09 03:21:02;;;;;;;64.10;33.15;;;;;;;0.03;99.08;100586.56;4828488;29;20206;-80
2021/12/09 03:23:28;;;;;;;71.72;35.25;;;;;;;0.03;99.34;100577.78;4828406;29;20667;-80
2021/12/09 03:25:54;;;;;;;65.00;33.40;;;;;;;0.02;99.64;100587.44;4828657;29;20191;-80
2021/12/09 03:28:19;;;;;;;63.42;34.17;;;;;;;0.05;99.26;100589.22;4827791;29;20546;-80
2021/12/09 03:30:45;;;;;;;63.67;34.50;;;;;;;0.03;99.79;100586.56;4858903;29;20253;-80
2021/12/09 03:33:10;;;;;;;67.38;34.25;;;;;;;-0.02;99.27;100589.19;4829382;29;20257;-80
2021/12/09 03:35:36;;;;;;;69.47;35.47;;;;;;;-0.04;99.32;100567.25;4832689;29;20167;-80
2021/12/09 03:38:03;;;;;;;68.60;34.70;;;;;;;-0.07;99.33;100569.88;4831622;29;20266;-80
2021/12/09 03:40:29;;;;;;;69.82;34.38;;;;;;;-0.10;99.52;100567.25;4850166;29;20223;-80
2021/12/09 03:42:54;;;;;;;64.53;35.30;;;;;;;-0.09;99.39;100574.28;4849498;29;20179;-80
2021/12/09 03:45:20;;;;;;;62.03;34.20;;;;;;;-0.10;99.37;100569.00;5202171;23;20245;-79
2021/12/09 03:47:45;;;;;;;63.28;33.13;;;;;;;-0.09;99.50;100571.66;4893086;29;20203;-81
2021/12/09 03:50:12;;;;;;;60.08;32.03;;;;;;;-0.07;99.33;100563.72;4898728;29;20228;-80
2021/12/09 03:52:38;;;;;;;66.85;34.78;;;;;;;-0.12;99.30;100561.09;4849682;29;20189;-81
2021/12/09 03:55:06;;;;;;;58.60;32.15;;;;;;;-0.09;99.11;100571.66;4882343;29;20173;-81
2021/12/09 03:57:32;;;;;;;65.70;34.83;;;;;;;-0.09;99.38;100569.00;4881859;29;20627;-81
2021/12/09 03:59:57;;;;;;;58.88;32.83;;;;;;;-0.12;98.70;100576.88;4882658;29;20189;-81
2021/12/09 04:02:23;;;;;;;63.97;34.70;;;;;;;-0.11;99.10;100578.66;4865697;29;20196;-82
2021/12/09 04:04:49;;;;;;;62.58;33.78;;;;;;;-0.15;99.06;100578.63;4882833;29;20181;-82
2021/12/09 04:07:14;;;;;;;70.93;35.53;;;;;;;-0.11;99.31;100583.94;4865032;29;20197;-82
2021/12/09 04:09:40;;;;;;;61.20;32.58;;;;;;;-0.14;98.76;100593.56;4865649;29;20679;-81
2021/12/09 04:12:07;;;;;;;62.72;34.03;;;;;;;-0.10;99.09;100604.09;4856741;29;20225;-82
2021/12/09 04:14:32;;;;;;;64.40;34.42;;;;;;;-0.13;99.04;100593.56;4862825;29;20588;-82
2021/12/09 04:16:58;;;;;;;66.97;34.90;;;;;;;-0.14;99.12;100585.66;4882635;29;20206;-82
2021/12/09 04:19:24;;;;;;;60.35;33.47;;;;;;;-0.06;98.44;100590.06;4872069;29;20198;-82
2021/12/09 04:21:50;;;;;;;64.03;33.55;;;;;;;-0.14;98.80;100599.69;4852708;29;20201;-81
2021/12/09 04:24:16;;;;;;;57.65;32.67;;;;;;;-0.05;99.13;100618.16;4831555;29;20206;-82
2021/12/09 04:26:45;;;;;;;60.90;33.83;;;;;;;-0.08;98.68;100612.00;4862607;29;20242;-82
2021/12/09 04:29:14;;;;;;;60.22;32.70;;;;;;;-0.08;99.07;100614.66;4864425;29;20190;-80
2021/12/09 04:31:41;;;;;;;65.40;34.78;;;;;;;-0.13;98.61;100616.38;4863466;29;20254;-81
2021/12/09 04:34:07;;;;;;;65.63;35.55;;;;;;;-0.10;98.88;100612.00;4848810;29;20550;-80
2021/12/09 04:36:33;;;;;;;65.40;35.35;;;;;;;-0.10;98.78;100603.22;4850751;29;20190;-80
2021/12/09 04:38:58;;;;;;;64.50;33.25;;;;;;;-0.09;98.67;100623.41;4867231;29;20333;-81
2021/12/09 04:41:24;;;;;;;59.88;33.83;;;;;;;-0.17;98.33;100617.28;4847393;29;20217;-81
2021/12/09 04:43:50;;;;;;;64.53;34.45;;;;;;;-0.18;98.18;100607.59;4847105;29;20183;-82
2021/12/09 04:46:16;;;;;;;63.22;34.05;;;;;;;-0.18;98.24;100602.34;4846489;29;20297;-83
2021/12/09 04:48:42;;;;;;;67.00;35.03;;;;;;;-0.22;98.00;100599.72;4846176;29;20198;-82
2021/12/09 04:51:08;;;;;;;62.00;32.75;;;;;;;-0.20;98.33;100599.69;4846269;29;20287;-83
2021/12/09 04:53:33;;;;;;;60.13;33.83;;;;;;;-0.20;98.22;100620.75;4846065;29;20174;-83
2021/12/09 04:55:59;;;;;;;65.20;34.13;;;;;;;-0.19;98.46;100625.16;4861325;29;20330;-83
2021/12/09 04:58:26;;;;;;;67.35;34.63;;;;;;;-0.15;99.09;100624.28;4861720;29;20222;-83
2021/12/09 05:00:55;;;;;;;63.22;33.92;;;;;;;-0.10;98.61;100614.63;4845547;29;20201;-82
2021/12/09 05:03:20;;;;;;;60.70;34.55;;;;;;;-0.14;98.58;100618.13;4845207;29;20201;-83
2021/12/09 05:05:49;;;;;;;61.15;33.75;;;;;;;-0.19;98.59;100609.38;4844687;29;20648;-83
2021/12/09 05:08:17;;;;;;;58.92;32.88;;;;;;;-0.16;98.48;100616.38;4845040;29;20213;-83
2021/12/09 05:11:00;;;;;;;65.45;34.53;;;;;;;-0.24;98.66;100604.09;4860961;29;20205;-83
2021/12/09 05:13:27;;;;;;;60.22;33.35;;;;;;;-0.19;98.31;100616.38;4861680;29;20250;-82
2021/12/09 05:15:55;;;;;;;62.10;34.25;;;;;;;-0.20;98.83;100607.59;4845556;29;20258;-82
2021/12/09 05:18:22;;;;;;;62.65;33.95;;;;;;;-0.19;98.78;100603.22;4844560;29;20186;-83
2021/12/09 05:20:48;;;;;;;70.63;33.83;;;;;;;-0.25;98.95;100609.34;4860409;29;20190;-83
2021/12/09 05:23:15;;;;;;;66.20;32.92;;;;;;;-0.23;98.97;100612.84;4846027;29;20190;-82
2021/12/09 05:25:42;;;;;;;59.80;33.90;;;;;;;-0.23;98.68;100610.22;4862517;29;20214;-81
2021/12/09 05:28:09;;;;;;;59.67;32.88;;;;;;;-0.13;99.16;100600.56;4852771;29;20266;-80
2021/12/09 05:32:07;;;;;;;60.13;32.80;;;;;;;-0.16;98.64;100603.22;4851973;29;20198;-81
2021/12/09 05:33:23;;;;;;;65.50;35.03;;;;;;;-0.24;98.69;100596.19;4867630;29;20616;-80
2021/12/09 05:35:49;;;;;;;63.38;34.22;;;;;;;-0.17;98.52;100596.22;4846191;29;20210;-82
2021/12/09 05:38:14;;;;;;;63.42;33.63;;;;;;;-0.22;98.51;100596.16;4844740;29;20230;-82
2021/12/09 05:40:40;;;;;;;58.08;33.00;;;;;;;-0.17;98.79;100590.94;4844879;29;20198;-82
2021/12/09 05:43:05;;;;;;;62.70;33.95;;;;;;;-0.22;98.52;100602.34;4844262;29;20189;-83
2021/12/09 05:45:30;;;;;;;65.65;34.65;;;;;;;-0.27;98.64;100606.69;4844538;29;20186;-82
2021/12/09 05:47:56;;;;;;;65.15;34.63;;;;;;;-0.26;98.99;100604.97;4863113;29;20288;-81
2021/12/09 05:50:21;;;;;;;65.28;34.83;;;;;;;-0.29;99.28;100597.03;4862087;29;20731;-81
2021/12/09 05:52:47;;;;;;;59.25;33.58;;;;;;;-0.26;99.27;100607.59;4862665;29;20171;-81
2021/12/09 05:55:12;;;;;;;66.13;35.13;;;;;;;-0.27;99.49;100608.47;4845606;29;20174;-82
2021/12/09 05:57:38;;;;;;;65.68;34.67;;;;;;;-0.25;99.43;100606.72;4844578;29;20653;-82
2021/12/09 06:00:06;;;;;;;63.90;34.13;;;;;;;-0.28;99.00;100606.72;4845225;29;20715;-82
2021/12/09 06:02:39;;;;;;;59.53;34.40;;;;;;;-0.26;98.87;100594.44;4848396;29;20166;-83
2021/12/09 06:05:05;;;;;;;60.83;33.00;;;;;;;-0.28;99.29;100599.69;4832835;29;20190;-82
2021/12/09 06:07:30;;;;;;;65.53;34.47;;;;;;;-0.26;99.38;100616.38;4849120;29;20206;-81
2021/12/09 06:09:56;;;;;;;71.15;35.38;;;;;;;-0.26;100.00;100612.88;4848453;29;20522;-82
2021/12/09 06:12:22;;;;;;;66.00;35.30;;;;;;;-0.23;99.76;100612.84;4862897;29;20185;-82
2021/12/09 06:14:48;;;;;;;64.43;34.58;;;;;;;-0.29;99.51;100623.38;4846115;29;20174;-81
2021/12/09 06:17:13;;;;;;;66.90;34.90;;;;;;;-0.25;99.89;100626.00;4846144;29;20191;-81
2021/12/09 06:19:39;;;;;;;68.90;34.08;;;;;;;-0.28;100.00;100620.75;4846406;29;20170;-82
2021/12/09 06:22:04;;;;;;;68.95;34.38;;;;;;;-0.31;100.00;100619.84;4862503;29;20241;-81
2021/12/09 06:24:30;;;;;;;66.82;34.75;;;;;;;-0.32;99.98;100623.38;4845025;29;20186;-82
2021/12/09 06:26:55;;;;;;;61.22;33.05;;;;;;;-0.33;100.00;100632.13;4909889;23;20234;-81
2021/12/09 06:29:21;;;;;;;66.03;34.03;;;;;;;-0.36;100.00;100638.25;4853144;29;20185;-82
2021/12/09 06:31:46;;;;;;;69.07;33.83;;;;;;;-0.32;100.00;100633.91;4848062;29;20209;-82
2021/12/09 06:34:12;;;;;;;67.13;34.92;;;;;;;-0.33;100.00;100638.28;4861445;29;20193;-82
2021/12/09 06:36:42;;;;;;;69.50;35.10;;;;;;;-0.39;100.00;100640.00;4859170;29;20230;-83
2021/12/09 06:39:09;;;;;;;66.30;34.95;;;;;;;-0.38;100.00;100649.66;4846373;29;20186;-82
2021/12/09 06:41:41;;;;;;;64.25;35.03;;;;;;;-0.32;100.00;100649.69;4846650;29;20639;-82
2021/12/09 06:44:07;;;;;;;67.32;37.65;;;;;;;-0.30;100.00;100640.06;5068471;23;20233;-84
2021/12/09 06:46:32;;;;;;;68.63;35.80;;;;;;;-0.35;100.00;100644.41;4886682;29;20273;-82
2021/12/09 06:48:58;;;;;;;64.03;33.78;;;;;;;-0.32;100.00;100647.06;4869996;29;20181;-80
2021/12/09 06:51:24;;;;;;;63.72;34.78;;;;;;;-0.38;99.72;100652.31;4874744;29;20200;-80
2021/12/09 06:53:50;;;;;;;68.85;33.90;;;;;;;-0.40;99.78;100652.28;4882890;29;20218;-80
2021/12/09 06:56:16;;;;;;;59.80;32.42;;;;;;;-0.32;99.83;100649.69;4868431;29;20173;-80
2021/12/09 06:58:41;;;;;;;60.17;33.38;;;;;;;-0.37;99.31;100644.41;4884034;29;20184;-80
2021/12/09 07:01:07;;;;;;;62.22;33.53;;;;;;;-0.32;99.38;100647.94;4881679;29;20674;-82
2021/12/09 07:03:34;;;;;;;56.92;32.58;;;;;;;-0.34;99.20;100657.56;4878921;29;20252;-82
2021/12/09 07:06:05;;;;;;;61.00;32.63;;;;;;;-0.34;99.18;100646.19;4872666;23;20313;-82
2021/12/09 07:08:31;;;;;;;58.42;32.58;;;;;;;-0.38;99.55;100668.09;4870556;29;20242;-83
2021/12/09 07:10:57;;;;;;;57.63;32.90;;;;;;;-0.42;99.05;100661.94;4865828;29;20205;-82
2021/12/09 07:13:22;;;;;;;62.17;33.50;;;;;;;-0.37;99.05;100664.56;4882719;29;20230;-83
2021/12/09 07:15:48;;;;;;;58.67;32.28;;;;;;;-0.36;99.25;100654.06;4900377;29;20229;-83
2021/12/09 07:18:13;;;;;;;54.70;31.38;;;;;;;-0.32;98.92;100639.16;4886307;29;20662;-81
2021/12/09 07:20:39;;;;;;;56.15;31.13;;;;;;;-0.30;98.87;100643.56;4888766;29;20196;-80
2021/12/09 07:23:05;;;;;;;66.13;33.85;;;;;;;-0.38;98.86;100645.28;4887574;29;20200;-81
2021/12/09 07:25:30;;;;;;;58.55;32.83;;;;;;;-0.32;99.12;100668.13;4886596;29;20221;-80
2021/12/09 07:27:56;;;;;;;56.95;32.28;;;;;;;-0.27;98.99;100664.63;4888446;29;20197;-81
2021/12/09 07:30:24;;;;;;;62.42;34.58;;;;;;;-0.24;99.22;100675.16;4889817;29;20202;-81
2021/12/09 07:32:50;;;;;;;58.33;32.70;;;;;;;-0.22;98.89;100651.47;4889617;29;20176;-81
2021/12/09 07:35:16;;;;;;;57.55;33.85;;;;;;;-0.21;98.89;100658.50;4861175;29;20892;-81
2021/12/09 07:37:43;;;;;;;58.78;33.38;;;;;;;-0.27;98.38;100642.69;4850090;29;20178;-81
2021/12/09 07:40:12;;;;;;;56.15;33.30;;;;;;;-0.31;98.26;100652.31;4852507;29;20175;-80
2021/12/09 07:42:38;;;;;;;56.10;30.75;;;;;;;-0.39;98.39;100664.59;4864479;29;20263;-81
2021/12/09 07:45:06;;;;;;;59.67;32.92;;;;;;;-0.38;98.16;100668.97;4850203;29;20267;-81
2021/12/09 07:47:32;;;;;;;52.75;30.95;;;;;;;-0.37;98.64;100681.28;4847220;29;20202;-83
2021/12/09 07:49:57;;;;;;;53.53;31.52;;;;;;;-0.39;98.64;100677.75;4844472;29;20190;-82
2021/12/09 07:52:23;;;;;;;52.38;31.38;;;;;;;-0.43;98.65;100654.91;4846305;29;20183;-82
2021/12/09 07:54:48;;;;;;;55.45;31.75;;;;;;;-0.37;98.46;100651.41;4845849;29;20239;-82
2021/12/09 07:57:14;;;;;;;59.85;33.03;;;;;;;-0.39;97.82;100658.41;4859522;29;20190;-82
2021/12/09 07:59:39;;;;;;;56.70;31.60;;;;;;;-0.39;98.15;100658.41;4864864;29;20299;-83
2021/12/09 08:02:05;;;;;;;55.55;32.35;;;;;;;-0.47;98.40;100664.53;4881387;29;20264;-82
2021/12/09 08:04:32;;;;;;;59.08;32.58;;;;;;;-0.38;98.76;100674.22;4882551;29;20180;-82
2021/12/09 08:06:58;;;;;;;54.58;30.98;;;;;;;-0.37;98.13;100678.63;4880378;29;20213;-83
2021/12/09 08:09:24;;;;;;;58.53;33.47;;;;;;;-0.34;97.93;100694.44;4882636;29;20177;-83
2021/12/09 08:11:50;;;;;;;62.05;33.90;;;;;;;-0.35;98.13;100682.16;4881675;29;20218;-82
2021/12/09 08:14:18;;;;;;;59.05;33.13;;;;;;;-0.39;98.01;100680.38;4881220;29;20193;-83
2021/12/09 08:16:44;;;;;;;57.05;32.38;;;;;;;-0.39;98.44;100682.09;4882546;29;20205;-83
2021/12/09 08:19:13;;;;;;;58.53;33.88;;;;;;;-0.39;98.47;100688.28;4880728;29;20683;-82
2021/12/09 08:21:40;;;;;;;64.35;35.40;;;;;;;-0.43;97.93;100690.00;4880769;29;20220;-83
2021/12/09 08:24:07;;;;;;;59.58;34.03;;;;;;;-0.10;98.32;100698.03;4881164;29;20202;-85
2021/12/09 08:26:34;;;;;;;62.45;34.67;;;;;;;-0.10;97.40;100701.53;4880458;29;20213;-84
2021/12/09 08:29:00;;;;;;;57.85;34.03;;;;;;;-0.10;97.15;100698.03;4866364;29;20181;-83
2021/12/09 08:31:32;;;;;;;56.67;32.55;;;;;;;-0.29;96.75;100704.97;4866935;29;20208;-84
2021/12/09 08:33:57;;;;;;;58.13;33.05;;;;;;;-0.23;97.56;100707.63;4885394;29;20188;-81
2021/12/09 08:36:23;;;;;;;60.63;33.00;;;;;;;-0.33;97.19;100705.81;4856921;29;20197;-80
2021/12/09 08:38:48;;;;;;;60.35;32.60;;;;;;;-0.26;97.60;100705.88;4846029;29;20202;-82
2021/12/09 08:41:18;;;;;;;56.67;32.33;;;;;;;-0.31;98.08;100698.81;4845831;29;20207;-82
2021/12/09 08:43:45;;;;;;;60.60;33.20;;;;;;;-0.41;97.65;100705.81;4843843;29;20569;-82
2021/12/09 08:46:11;;;;;;;55.78;33.05;;;;;;;-0.36;98.21;100711.09;4844542;29;20409;-84
2021/12/09 08:48:36;;;;;;;58.00;32.63;;;;;;;-0.31;98.10;100704.97;4844675;29;20210;-81
2021/12/09 08:51:02;;;;;;;59.03;33.45;;;;;;;-0.41;98.46;100700.53;4846924;29;20286;-80
2021/12/09 08:53:27;;;;;;;61.17;34.40;;;;;;;-0.39;98.07;100704.06;4847217;29;20200;-80
2021/12/09 08:55:54;;;;;;;61.08;33.60;;;;;;;-0.42;99.00;100698.78;4845823;29;20193;-82
2021/12/09 08:58:21;;;;;;;60.17;34.20;;;;;;;-0.42;99.18;100690.88;4877768;29;20634;-82
2021/12/09 09:00:47;;;;;;;57.60;32.75;;;;;;;-0.46;98.50;100689.09;4857794;29;20670;-82
2021/12/09 09:03:14;;;;;;;59.58;33.30;;;;;;;-0.44;98.72;100690.91;4881630;29;20165;-82
2021/12/09 09:05:42;;;;;;;59.78;33.80;;;;;;;-0.40;98.90;100685.63;4861412;29;20190;-82
2021/12/09 09:08:08;;;;;;;58.40;34.28;;;;;;;-0.44;98.53;100701.41;4860472;29;20529;-82
2021/12/09 09:10:37;;;;;;;66.80;35.25;;;;;;;-0.40;98.78;100696.16;4846068;29;20237;-82
2021/12/09 09:13:03;;;;;;;56.50;33.65;;;;;;;-0.46;99.03;100695.25;4861246;29;20185;-83
2021/12/09 09:15:31;;;;;;;58.78;33.50;;;;;;;-0.48;98.66;100697.00;4849551;29;20222;-81
2021/12/09 09:17:57;;;;;;;62.38;34.03;;;;;;;-0.47;98.76;100690.84;4845506;29;20621;-82
2021/12/09 09:20:26;;;;;;;57.55;33.78;;;;;;;-0.48;98.71;100694.38;4843405;29;20367;-81
2021/12/09 09:22:52;;;;;;;62.47;34.80;;;;;;;-0.42;98.66;100682.97;4846790;29;20177;-81
2021/12/09 09:25:24;;;;;;;60.47;33.58;;;;;;;-0.45;98.92;100685.63;4843886;29;20203;-83
2021/12/09 09:27:50;;;;;;;57.47;32.47;;;;;;;-0.45;99.27;100685.63;4846192;29;20215;-82
2021/12/09 09:30:19;;;;;;;59.45;34.20;;;;;;;-0.37;99.07;100683.00;4859176;29;20387;-82
2021/12/09 09:32:46;;;;;;;61.85;32.88;;;;;;;-0.43;99.22;100682.09;4846714;29;20633;-82
2021/12/09 09:35:11;;;;;;;61.72;34.00;;;;;;;-0.43;98.50;100679.47;4848539;29;20652;-80
2021/12/09 09:37:38;;;;;;;58.88;33.67;;;;;;;-0.51;99.00;100686.44;4865007;29;20166;-80
2021/12/09 09:40:11;;;;;;;59.63;33.40;;;;;;;-0.43;99.24;100678.59;4850346;29;20202;-81
2021/12/09 09:45:10;;;;;;;62.78;33.28;;;;;;;-0.36;99.60;100674.25;4866731;29;20212;-82
2021/12/09 09:47:36;;;;;;;61.83;34.53;;;;;;;-0.50;99.18;100668.94;4865026;29;20186;-82
2021/12/09 09:50:05;;;;;;;67.20;35.13;;;;;;;-0.49;99.74;100670.69;4865052;29;20175;-82
2021/12/09 09:52:31;;;;;;;61.15;33.97;;;;;;;-0.53;99.41;100669.78;4863359;29;20260;-82
2021/12/09 09:54:57;;;;;;;62.17;34.33;;;;;;;-0.49;99.84;100654.88;4848603;29;20216;-82
2021/12/09 09:57:23;;;;;;;61.72;34.75;;;;;;;-0.54;99.50;100661.91;4864729;29;20177;-82
2021/12/09 09:59:49;;;;;;;63.70;34.97;;;;;;;-0.50;99.52;100654.00;4863875;29;20607;-82
2021/12/09 10:02:15;;;;;;;63.85;36.50;;;;;;;-0.39;100.00;100645.25;4845370;29;20205;-82
2021/12/09 10:07:08;;;;;;;65.07;35.05;;;;;;;-0.35;99.51;100650.56;4863710;29;20210;-79
2021/12/09 10:09:34;;;;;;;63.42;35.75;;;;;;;-0.46;99.46;100642.63;4861786;29;20591;-81
2021/12/09 10:12:01;;;;;;;66.35;35.08;;;;;;;-0.34;99.61;100654.06;4863618;29;20731;-81
2021/12/09 10:14:32;;;;;;;67.78;36.17;;;;;;;-0.37;99.32;100656.66;4862125;29;20205;-83
2021/12/09 10:17:12;;;;;;;62.35;35.10;;;;;;;-0.38;99.87;100665.47;4865009;29;20235;-82
2021/12/09 10:19:41;;;;;;;61.95;34.40;;;;;;;-0.43;99.37;100662.81;4861252;29;20242;-82
2021/12/09 10:22:20;;;;;;;63.88;35.50;;;;;;;-0.34;99.86;100677.75;4846565;29;20212;-83
2021/12/09 10:24:47;;;;;;;68.82;35.80;;;;;;;-0.39;99.45;100666.31;4861432;29;20182;-83
2021/12/09 10:27:22;;;;;;;67.22;35.63;;;;;;;-0.37;99.68;100651.41;4862181;29;20284;-83
2021/12/09 10:29:47;;;;;;;63.17;35.05;;;;;;;-0.36;99.15;100655.81;4864303;29;20205;-83
2021/12/09 10:32:24;;;;;;;66.30;36.08;;;;;;;-0.29;99.20;100658.47;4849274;29;20202;-82
2021/12/09 10:34:50;;;;;;;70.18;35.75;;;;;;;-0.33;99.34;100661.06;4864875;29;20643;-83
2021/12/09 10:37:21;;;;;;;68.00;35.35;;;;;;;-0.37;99.35;100656.66;4862830;29;20170;-83
2021/12/09 10:40:21;;;;;;;64.55;35.70;;;;;;;-0.38;98.83;100649.66;4865211;29;20560;-83
2021/12/09 10:42:48;;;;;;;65.28;34.72;;;;;;;-0.36;99.22;100651.44;4856946;29;20535;-83
2021/12/09 10:45:18;;;;;;;67.95;36.13;;;;;;;-0.33;98.75;100655.81;4864412;29;20170;-83
2021/12/09 10:47:59;;;;;;;68.80;35.28;;;;;;;-0.36;99.05;100648.78;4862847;29;20194;-83
2021/12/09 10:50:36;;;;;;;70.03;35.35;;;;;;;-0.30;99.01;100650.59;4865766;29;20218;-83
2021/12/09 10:55:52;;;;;;;66.53;35.10;;;;;;;-0.26;98.78;100647.09;4863277;29;20182;-83
2021/12/09 10:58:35;;;;;;;64.53;35.53;;;;;;;-0.26;98.66;100652.34;4845855;29;20242;-82
2021/12/09 11:01:08;;;;;;;66.63;35.20;;;;;;;-0.31;98.61;100644.41;4863140;29;20315;-82
2021/12/09 11:03:45;;;;;;;67.38;35.58;;;;;;;-0.31;99.24;100656.69;4846632;29;20200;-82
2021/12/09 11:06:11;;;;;;;73.28;36.75;;;;;;;-0.34;98.94;100647.03;4861193;29;20209;-82
2021/12/09 11:08:48;;;;;;;68.65;37.20;;;;;;;-0.27;98.85;100655.84;4862840;29;20174;-83
2021/12/09 11:11:15;;;;;;;69.38;36.25;;;;;;;-0.35;98.80;100660.19;4860471;29;20237;-83
2021/12/09 11:14:03;;;;;;;66.95;36.58;;;;;;;-0.43;98.58;100644.38;4860815;29;20189;-83
2021/12/09 11:16:39;;;;;;;72.18;35.08;;;;;;;-0.42;98.91;100627.72;4863302;29;20178;-82
2021/12/09 11:19:17;;;;;;;67.22;35.83;;;;;;;-0.40;98.65;100643.53;4846872;29;20216;-83
2021/12/09 11:21:51;;;;;;;65.07;35.22;;;;;;;-0.40;99.70;100638.25;4846006;29;20231;-83